sensor_id;sensor_type;location;lat;lon;timestamp;P1;durP1;ratioP1;P2;durP2;ratioP2
572;SDS011;271;51.114;13.780;2023-04-08T00:02:10;33.58;;;14.82;;
572;SDS011;271;51.114;13.780;2023-04-08T00:04:57;30.33;;;13.02;;
572;SDS011;271;51.114;13.780;2023-04-08T00:07:45;31.13;;;12.65;;
572;SDS011;271;51.114;13.780;2023-04-08T00:10:33;30.83;;;12.65;;
572;SDS011;271;51.114;13.780;2023-04-08T00:13:22;31.00;;;13.10;;
572;SDS011;271;51.114;13.780;2023-04-08T00:16:10;34.25;;;13.98;;
572;SDS011;271;51.114;13.780;2023-04-08T00:18:58;33.67;;;13.50;;
572;SDS011;271;51.114;13.780;2023-04-08T00:21:46;35.70;;;14.43;;
572;SDS011;271;51.114;13.780;2023-04-08T00:24:33;33.58;;;14.23;;
572;SDS011;271;51.114;13.780;2023-04-08T00:27:21;32.38;;;13.45;;
572;SDS011;271;51.114;13.780;2023-04-08T00:30:11;33.67;;;14.00;;
572;SDS011;271;51.114;13.780;2023-04-08T00:33:00;32.63;;;13.70;;
572;SDS011;271;51.114;13.780;2023-04-08T00:35:47;35.88;;;15.70;;
572;SDS011;271;51.114;13.780;2023-04-08T00:38:35;36.58;;;15.43;;
572;SDS011;271;51.114;13.780;2023-04-08T00:41:23;37.40;;;17.00;;
572;SDS011;271;51.114;13.780;2023-04-08T00:44:11;38.97;;;16.00;;
572;SDS011;271;51.114;13.780;2023-04-08T00:47:00;38.58;;;14.90;;
572;SDS011;271;51.114;13.780;2023-04-08T00:49:48;37.50;;;14.57;;
572;SDS011;271;51.114;13.780;2023-04-08T00:52:35;36.20;;;16.45;;
572;SDS011;271;51.114;13.780;2023-04-08T00:55:23;36.90;;;16.55;;
572;SDS011;271;51.114;13.780;2023-04-08T00:58:11;38.33;;;15.10;;
572;SDS011;271;51.114;13.780;2023-04-08T01:01:06;33.97;;;13.80;;
572;SDS011;271;51.114;13.780;2023-04-08T01:04:03;38.22;;;14.88;;
572;SDS011;271;51.114;13.780;2023-04-08T01:06:55;36.88;;;16.05;;
572;SDS011;271;51.114;13.780;2023-04-08T01:09:47;36.05;;;14.65;;
572;SDS011;271;51.114;13.780;2023-04-08T01:12:39;37.42;;;14.25;;
572;SDS011;271;51.114;13.780;2023-04-08T01:15:30;36.42;;;13.13;;
572;SDS011;271;51.114;13.780;2023-04-08T01:18:21;34.88;;;14.20;;
572;SDS011;271;51.114;13.780;2023-04-08T01:21:11;33.28;;;13.02;;
572;SDS011;271;51.114;13.780;2023-04-08T01:24:10;33.80;;;12.55;;
572;SDS011;271;51.114;13.780;2023-04-08T01:27:10;33.25;;;12.30;;
572;SDS011;271;51.114;13.780;2023-04-08T01:30:00;34.10;;;12.73;;
572;SDS011;271;51.114;13.780;2023-04-08T01:32:49;31.92;;;11.77;;
572;SDS011;271;51.114;13.780;2023-04-08T01:35:38;32.10;;;12.43;;
572;SDS011;271;51.114;13.780;2023-04-08T01:38:26;30.10;;;11.07;;
572;SDS011;271;51.114;13.780;2023-04-08T01:41:16;30.98;;;11.50;;
572;SDS011;271;51.114;13.780;2023-04-08T01:44:05;33.13;;;12.02;;
572;SDS011;271;51.114;13.780;2023-04-08T01:46:53;29.92;;;11.23;;
572;SDS011;271;51.114;13.780;2023-04-08T01:49:42;31.88;;;12.32;;
572;SDS011;271;51.114;13.780;2023-04-08T01:52:31;30.85;;;11.02;;
572;SDS011;271;51.114;13.780;2023-04-08T01:55:21;29.23;;;10.20;;
572;SDS011;271;51.114;13.780;2023-04-08T01:58:10;29.25;;;9.32;;
572;SDS011;271;51.114;13.780;2023-04-08T02:01:02;29.95;;;9.82;;
572;SDS011;271;51.114;13.780;2023-04-08T02:03:51;29.70;;;10.10;;
572;SDS011;271;51.114;13.780;2023-04-08T02:06:42;31.80;;;10.40;;
572;SDS011;271;51.114;13.780;2023-04-08T02:09:30;26.67;;;9.27;;
572;SDS011;271;51.114;13.780;2023-04-08T02:12:19;28.60;;;9.38;;
572;SDS011;271;51.114;13.780;2023-04-08T02:15:07;28.45;;;9.75;;
572;SDS011;271;51.114;13.780;2023-04-08T02:17:58;27.92;;;8.32;;
572;SDS011;271;51.114;13.780;2023-04-08T02:20:53;26.63;;;7.70;;
572;SDS011;271;51.114;13.780;2023-04-08T02:23:47;30.23;;;8.43;;
572;SDS011;271;51.114;13.780;2023-04-08T02:26:36;25.45;;;7.30;;
572;SDS011;271;51.114;13.780;2023-04-08T02:29:28;27.90;;;8.80;;
572;SDS011;271;51.114;13.780;2023-04-08T02:32:18;26.58;;;7.90;;
572;SDS011;271;51.114;13.780;2023-04-08T02:35:08;29.73;;;8.25;;
572;SDS011;271;51.114;13.780;2023-04-08T02:37:58;26.33;;;7.22;;
572;SDS011;271;51.114;13.780;2023-04-08T02:40:48;28.13;;;8.65;;
572;SDS011;271;51.114;13.780;2023-04-08T02:43:36;28.30;;;8.30;;
572;SDS011;271;51.114;13.780;2023-04-08T02:46:24;27.95;;;8.73;;
572;SDS011;271;51.114;13.780;2023-04-08T02:49:11;24.80;;;7.63;;
572;SDS011;271;51.114;13.780;2023-04-08T02:52:00;25.60;;;8.25;;
572;SDS011;271;51.114;13.780;2023-04-08T02:54:49;25.23;;;7.45;;
572;SDS011;271;51.114;13.780;2023-04-08T02:57:37;24.90;;;7.07;;
572;SDS011;271;51.114;13.780;2023-04-08T03:00:26;23.83;;;7.15;;
572;SDS011;271;51.114;13.780;2023-04-08T03:03:14;26.60;;;7.18;;
572;SDS011;271;51.114;13.780;2023-04-08T03:06:02;24.80;;;6.35;;
572;SDS011;271;51.114;13.780;2023-04-08T03:08:51;25.30;;;6.88;;
572;SDS011;271;51.114;13.780;2023-04-08T03:11:39;24.17;;;6.80;;
572;SDS011;271;51.114;13.780;2023-04-08T03:14:27;25.75;;;6.90;;
572;SDS011;271;51.114;13.780;2023-04-08T03:17:15;24.27;;;6.38;;
572;SDS011;271;51.114;13.780;2023-04-08T03:20:03;24.77;;;7.65;;
572;SDS011;271;51.114;13.780;2023-04-08T03:22:52;25.27;;;7.13;;
572;SDS011;271;51.114;13.780;2023-04-08T03:25:41;23.83;;;5.57;;
572;SDS011;271;51.114;13.780;2023-04-08T03:28:29;22.45;;;5.65;;
572;SDS011;271;51.114;13.780;2023-04-08T03:31:16;25.85;;;7.45;;
572;SDS011;271;51.114;13.780;2023-04-08T03:34:06;23.67;;;6.55;;
572;SDS011;271;51.114;13.780;2023-04-08T03:36:53;25.67;;;6.70;;
572;SDS011;271;51.114;13.780;2023-04-08T03:39:41;27.23;;;7.00;;
572;SDS011;271;51.114;13.780;2023-04-08T03:42:30;24.42;;;6.15;;
572;SDS011;271;51.114;13.780;2023-04-08T03:45:18;27.40;;;6.78;;
572;SDS011;271;51.114;13.780;2023-04-08T03:48:06;23.63;;;6.40;;
572;SDS011;271;51.114;13.780;2023-04-08T03:50:54;24.98;;;6.10;;
572;SDS011;271;51.114;13.780;2023-04-08T03:53:41;24.67;;;6.85;;
572;SDS011;271;51.114;13.780;2023-04-08T03:56:29;23.98;;;6.90;;
572;SDS011;271;51.114;13.780;2023-04-08T03:59:18;24.13;;;6.30;;
572;SDS011;271;51.114;13.780;2023-04-08T04:02:06;25.73;;;7.57;;
572;SDS011;271;51.114;13.780;2023-04-08T04:04:54;24.02;;;6.45;;
572;SDS011;271;51.114;13.780;2023-04-08T04:07:42;26.95;;;7.70;;
572;SDS011;271;51.114;13.780;2023-04-08T04:10:30;25.33;;;6.95;;
572;SDS011;271;51.114;13.780;2023-04-08T04:13:18;25.00;;;7.13;;
572;SDS011;271;51.114;13.780;2023-04-08T04:16:08;27.48;;;7.97;;
572;SDS011;271;51.114;13.780;2023-04-08T04:18:55;26.65;;;8.52;;
572;SDS011;271;51.114;13.780;2023-04-08T04:21:43;25.98;;;7.85;;
572;SDS011;271;51.114;13.780;2023-04-08T04:24:31;27.90;;;8.10;;
572;SDS011;271;51.114;13.780;2023-04-08T04:27:19;25.13;;;8.15;;
572;SDS011;271;51.114;13.780;2023-04-08T04:30:07;26.85;;;7.55;;
572;SDS011;271;51.114;13.780;2023-04-08T04:32:56;27.58;;;8.55;;
572;SDS011;271;51.114;13.780;2023-04-08T04:35:44;22.52;;;6.30;;
572;SDS011;271;51.114;13.780;2023-04-08T04:38:32;26.50;;;7.18;;
572;SDS011;271;51.114;13.780;2023-04-08T04:41:19;26.60;;;8.00;;
572;SDS011;271;51.114;13.780;2023-04-08T04:44:07;27.38;;;7.93;;
572;SDS011;271;51.114;13.780;2023-04-08T04:46:55;27.35;;;8.38;;
572;SDS011;271;51.114;13.780;2023-04-08T04:49:44;26.88;;;8.35;;
572;SDS011;271;51.114;13.780;2023-04-08T04:52:32;28.75;;;7.95;;
572;SDS011;271;51.114;13.780;2023-04-08T04:55:22;25.95;;;6.97;;
572;SDS011;271;51.114;13.780;2023-04-08T04:58:10;26.05;;;6.78;;
572;SDS011;271;51.114;13.780;2023-04-08T05:00:58;25.98;;;6.90;;
572;SDS011;271;51.114;13.780;2023-04-08T05:03:46;26.08;;;6.90;;
572;SDS011;271;51.114;13.780;2023-04-08T05:06:35;23.40;;;6.75;;
572;SDS011;271;51.114;13.780;2023-04-08T05:09:22;24.38;;;6.70;;
572;SDS011;271;51.114;13.780;2023-04-08T05:12:10;24.88;;;6.55;;
572;SDS011;271;51.114;13.780;2023-04-08T05:14:58;23.60;;;7.00;;
572;SDS011;271;51.114;13.780;2023-04-08T05:17:46;24.98;;;6.80;;
572;SDS011;271;51.114;13.780;2023-04-08T05:20:37;25.00;;;7.13;;
572;SDS011;271;51.114;13.780;2023-04-08T05:23:26;22.65;;;6.07;;
572;SDS011;271;51.114;13.780;2023-04-08T05:26:14;24.88;;;6.28;;
572;SDS011;271;51.114;13.780;2023-04-08T05:29:01;27.10;;;7.20;;
572;SDS011;271;51.114;13.780;2023-04-08T05:31:49;26.63;;;7.93;;
572;SDS011;271;51.114;13.780;2023-04-08T05:34:37;28.30;;;8.75;;
572;SDS011;271;51.114;13.780;2023-04-08T05:37:25;26.17;;;7.30;;
572;SDS011;271;51.114;13.780;2023-04-08T05:40:14;28.42;;;8.45;;
572;SDS011;271;51.114;13.780;2023-04-08T05:43:02;25.13;;;7.45;;
572;SDS011;271;51.114;13.780;2023-04-08T05:45:49;27.50;;;8.07;;
572;SDS011;271;51.114;13.780;2023-04-08T05:48:37;29.83;;;8.27;;
572;SDS011;271;51.114;13.780;2023-04-08T05:51:25;27.13;;;8.35;;
572;SDS011;271;51.114;13.780;2023-04-08T05:54:12;27.98;;;9.57;;
572;SDS011;271;51.114;13.780;2023-04-08T05:57:01;25.10;;;7.90;;
572;SDS011;271;51.114;13.780;2023-04-08T05:59:50;26.55;;;8.27;;
572;SDS011;271;51.114;13.780;2023-04-08T06:02:39;28.83;;;9.25;;
572;SDS011;271;51.114;13.780;2023-04-08T06:05:28;27.85;;;8.55;;
572;SDS011;271;51.114;13.780;2023-04-08T06:08:17;27.35;;;8.60;;
572;SDS011;271;51.114;13.780;2023-04-08T06:11:06;29.13;;;9.50;;
572;SDS011;271;51.114;13.780;2023-04-08T06:13:55;30.73;;;10.82;;
572;SDS011;271;51.114;13.780;2023-04-08T06:16:42;33.67;;;12.52;;
572;SDS011;271;51.114;13.780;2023-04-08T06:19:30;31.75;;;12.32;;
572;SDS011;271;51.114;13.780;2023-04-08T06:22:19;31.52;;;12.30;;
572;SDS011;271;51.114;13.780;2023-04-08T06:25:07;39.03;;;15.50;;
572;SDS011;271;51.114;13.780;2023-04-08T06:27:55;39.50;;;14.93;;
572;SDS011;271;51.114;13.780;2023-04-08T06:30:44;40.63;;;16.17;;
572;SDS011;271;51.114;13.780;2023-04-08T06:33:31;36.42;;;15.82;;
572;SDS011;271;51.114;13.780;2023-04-08T06:36:19;36.47;;;15.38;;
572;SDS011;271;51.114;13.780;2023-04-08T06:39:07;39.22;;;16.95;;
572;SDS011;271;51.114;13.780;2023-04-08T06:41:55;39.58;;;16.98;;
572;SDS011;271;51.114;13.780;2023-04-08T06:44:44;40.63;;;16.55;;
572;SDS011;271;51.114;13.780;2023-04-08T06:47:33;42.60;;;18.73;;
572;SDS011;271;51.114;13.780;2023-04-08T06:50:21;43.83;;;18.65;;
572;SDS011;271;51.114;13.780;2023-04-08T06:53:08;39.40;;;18.02;;
572;SDS011;271;51.114;13.780;2023-04-08T06:55:56;44.72;;;19.35;;
572;SDS011;271;51.114;13.780;2023-04-08T06:58:44;42.75;;;17.83;;
572;SDS011;271;51.114;13.780;2023-04-08T07:01:32;46.22;;;19.45;;
572;SDS011;271;51.114;13.780;2023-04-08T07:04:21;46.35;;;20.50;;
572;SDS011;271;51.114;13.780;2023-04-08T07:07:08;45.50;;;19.65;;
572;SDS011;271;51.114;13.780;2023-04-08T07:09:56;44.92;;;19.77;;
572;SDS011;271;51.114;13.780;2023-04-08T07:12:44;39.90;;;19.85;;
572;SDS011;271;51.114;13.780;2023-04-08T07:15:32;43.50;;;20.23;;
572;SDS011;271;51.114;13.780;2023-04-08T07:18:19;43.45;;;20.65;;
572;SDS011;271;51.114;13.780;2023-04-08T07:21:09;42.25;;;19.60;;
572;SDS011;271;51.114;13.780;2023-04-08T07:23:57;44.03;;;18.35;;
572;SDS011;271;51.114;13.780;2023-04-08T07:26:45;40.45;;;17.95;;
572;SDS011;271;51.114;13.780;2023-04-08T07:29:33;34.78;;;14.32;;
572;SDS011;271;51.114;13.780;2023-04-08T07:32:20;31.10;;;11.70;;
572;SDS011;271;51.114;13.780;2023-04-08T07:35:08;26.77;;;8.75;;
572;SDS011;271;51.114;13.780;2023-04-08T07:37:57;24.60;;;8.00;;
572;SDS011;271;51.114;13.780;2023-04-08T07:40:45;24.40;;;7.85;;
572;SDS011;271;51.114;13.780;2023-04-08T07:43:32;24.08;;;7.45;;
572;SDS011;271;51.114;13.780;2023-04-08T07:46:21;23.75;;;6.60;;
572;SDS011;271;51.114;13.780;2023-04-08T07:49:10;21.88;;;6.28;;
572;SDS011;271;51.114;13.780;2023-04-08T07:51:57;22.10;;;6.13;;
572;SDS011;271;51.114;13.780;2023-04-08T07:54:47;22.88;;;6.22;;
572;SDS011;271;51.114;13.780;2023-04-08T07:57:34;22.80;;;6.38;;
572;SDS011;271;51.114;13.780;2023-04-08T08:00:22;22.65;;;6.32;;
572;SDS011;271;51.114;13.780;2023-04-08T08:03:10;25.27;;;7.90;;
572;SDS011;271;51.114;13.780;2023-04-08T08:05:57;23.13;;;7.13;;
572;SDS011;271;51.114;13.780;2023-04-08T08:08:45;23.08;;;7.32;;
572;SDS011;271;51.114;13.780;2023-04-08T08:11:34;21.92;;;6.55;;
572;SDS011;271;51.114;13.780;2023-04-08T08:14:22;23.77;;;8.02;;
572;SDS011;271;51.114;13.780;2023-04-08T08:17:11;24.33;;;7.35;;
572;SDS011;271;51.114;13.780;2023-04-08T08:19:59;23.58;;;7.20;;
572;SDS011;271;51.114;13.780;2023-04-08T08:22:47;22.45;;;6.43;;
572;SDS011;271;51.114;13.780;2023-04-08T08:25:34;23.63;;;8.30;;
572;SDS011;271;51.114;13.780;2023-04-08T08:28:23;23.65;;;6.80;;
572;SDS011;271;51.114;13.780;2023-04-08T08:31:12;20.45;;;5.72;;
572;SDS011;271;51.114;13.780;2023-04-08T08:34:00;22.20;;;6.22;;
572;SDS011;271;51.114;13.780;2023-04-08T08:36:47;22.38;;;6.85;;
572;SDS011;271;51.114;13.780;2023-04-08T08:39:35;23.50;;;6.78;;
572;SDS011;271;51.114;13.780;2023-04-08T08:42:24;22.45;;;7.50;;
572;SDS011;271;51.114;13.780;2023-04-08T08:45:13;24.10;;;7.97;;
572;SDS011;271;51.114;13.780;2023-04-08T08:48:02;23.17;;;7.90;;
572;SDS011;271;51.114;13.780;2023-04-08T08:50:50;21.17;;;6.22;;
572;SDS011;271;51.114;13.780;2023-04-08T08:53:37;22.80;;;7.20;;
572;SDS011;271;51.114;13.780;2023-04-08T08:56:31;22.65;;;7.03;;
572;SDS011;271;51.114;13.780;2023-04-08T08:59:19;23.92;;;8.13;;
572;SDS011;271;51.114;13.780;2023-04-08T09:02:11;21.80;;;7.10;;
572;SDS011;271;51.114;13.780;2023-04-08T09:05:13;22.10;;;7.90;;
572;SDS011;271;51.114;13.780;2023-04-08T09:08:01;22.80;;;7.30;;
572;SDS011;271;51.114;13.780;2023-04-08T09:10:49;23.00;;;8.35;;
572;SDS011;271;51.114;13.780;2023-04-08T09:13:36;25.70;;;8.40;;
572;SDS011;271;51.114;13.780;2023-04-08T09:16:24;23.17;;;8.00;;
572;SDS011;271;51.114;13.780;2023-04-08T09:19:15;24.40;;;8.15;;
572;SDS011;271;51.114;13.780;2023-04-08T09:22:03;23.33;;;8.85;;
572;SDS011;271;51.114;13.780;2023-04-08T09:24:52;24.92;;;8.70;;
572;SDS011;271;51.114;13.780;2023-04-08T09:27:39;23.75;;;8.27;;
572;SDS011;271;51.114;13.780;2023-04-08T09:30:27;23.42;;;8.95;;
572;SDS011;271;51.114;13.780;2023-04-08T09:33:15;24.98;;;8.32;;
572;SDS011;271;51.114;13.780;2023-04-08T09:36:04;26.00;;;9.30;;
572;SDS011;271;51.114;13.780;2023-04-08T09:38:52;23.20;;;8.13;;
572;SDS011;271;51.114;13.780;2023-04-08T09:41:41;25.20;;;9.15;;
572;SDS011;271;51.114;13.780;2023-04-08T09:44:29;28.58;;;9.75;;
572;SDS011;271;51.114;13.780;2023-04-08T09:47:19;26.27;;;10.27;;
572;SDS011;271;51.114;13.780;2023-04-08T09:50:13;26.20;;;10.27;;
572;SDS011;271;51.114;13.780;2023-04-08T09:53:08;28.05;;;10.63;;
572;SDS011;271;51.114;13.780;2023-04-08T09:56:01;24.47;;;9.67;;
572;SDS011;271;51.114;13.780;2023-04-08T09:58:57;28.65;;;10.45;;
572;SDS011;271;51.114;13.780;2023-04-08T10:01:49;27.98;;;10.05;;
572;SDS011;271;51.114;13.780;2023-04-08T10:04:40;24.80;;;9.52;;
572;SDS011;271;51.114;13.780;2023-04-08T10:07:34;25.10;;;9.15;;
572;SDS011;271;51.114;13.780;2023-04-08T10:10:24;27.60;;;10.70;;
572;SDS011;271;51.114;13.780;2023-04-08T10:13:13;24.33;;;8.85;;
572;SDS011;271;51.114;13.780;2023-04-08T10:16:17;23.67;;;8.70;;
572;SDS011;271;51.114;13.780;2023-04-08T10:19:34;26.40;;;10.47;;
572;SDS011;271;51.114;13.780;2023-04-08T10:25:34;27.00;;;10.53;;
572;SDS011;271;51.114;13.780;2023-04-08T10:28:22;23.47;;;9.30;;
572;SDS011;271;51.114;13.780;2023-04-08T10:31:11;26.40;;;9.90;;
572;SDS011;271;51.114;13.780;2023-04-08T10:34:14;23.67;;;9.47;;
572;SDS011;271;51.114;13.780;2023-04-08T10:37:02;23.70;;;8.50;;
572;SDS011;271;51.114;13.780;2023-04-08T10:39:52;23.50;;;8.23;;
572;SDS011;271;51.114;13.780;2023-04-08T10:42:42;23.77;;;7.70;;
572;SDS011;271;51.114;13.780;2023-04-08T10:45:29;23.57;;;7.93;;
572;SDS011;271;51.114;13.780;2023-04-08T10:48:18;22.70;;;7.60;;
572;SDS011;271;51.114;13.780;2023-04-08T10:51:07;24.67;;;8.38;;
572;SDS011;271;51.114;13.780;2023-04-08T10:53:56;26.67;;;10.40;;
572;SDS011;271;51.114;13.780;2023-04-08T10:56:52;24.40;;;8.80;;
572;SDS011;271;51.114;13.780;2023-04-08T10:59:41;25.90;;;9.90;;
572;SDS011;271;51.114;13.780;2023-04-08T11:02:31;24.80;;;9.60;;
572;SDS011;271;51.114;13.780;2023-04-08T11:05:21;25.80;;;9.40;;
572;SDS011;271;51.114;13.780;2023-04-08T11:08:08;25.70;;;10.03;;
572;SDS011;271;51.114;13.780;2023-04-08T11:10:56;27.90;;;10.85;;
572;SDS011;271;51.114;13.780;2023-04-08T11:13:46;30.37;;;12.30;;
572;SDS011;271;51.114;13.780;2023-04-08T11:16:35;30.10;;;13.37;;
572;SDS011;271;51.114;13.780;2023-04-08T11:19:23;30.20;;;13.65;;
572;SDS011;271;51.114;13.780;2023-04-08T11:22:11;30.80;;;12.80;;
572;SDS011;271;51.114;13.780;2023-04-08T11:24:59;32.17;;;16.50;;
572;SDS011;271;51.114;13.780;2023-04-08T11:27:47;30.00;;;13.57;;
572;SDS011;271;51.114;13.780;2023-04-08T11:30:35;31.92;;;14.63;;
572;SDS011;271;51.114;13.780;2023-04-08T11:33:25;32.97;;;15.27;;
572;SDS011;271;51.114;13.780;2023-04-08T11:36:13;30.63;;;13.30;;
572;SDS011;271;51.114;13.780;2023-04-08T11:39:06;27.73;;;12.60;;
572;SDS011;271;51.114;13.780;2023-04-08T11:41:56;29.77;;;13.80;;
572;SDS011;271;51.114;13.780;2023-04-08T11:44:44;30.67;;;14.40;;
572;SDS011;271;51.114;13.780;2023-04-08T11:47:33;30.73;;;14.48;;
572;SDS011;271;51.114;13.780;2023-04-08T11:50:25;29.88;;;14.05;;
572;SDS011;271;51.114;13.780;2023-04-08T11:53:15;30.60;;;14.98;;
572;SDS011;271;51.114;13.780;2023-04-08T11:56:14;31.63;;;14.02;;
572;SDS011;271;51.114;13.780;2023-04-08T11:59:03;30.20;;;14.13;;
572;SDS011;271;51.114;13.780;2023-04-08T12:01:50;31.90;;;16.27;;
572;SDS011;271;51.114;13.780;2023-04-08T12:04:38;32.45;;;15.40;;
572;SDS011;271;51.114;13.780;2023-04-08T12:07:27;31.77;;;14.70;;
572;SDS011;271;51.114;13.780;2023-04-08T12:10:15;33.05;;;14.95;;
572;SDS011;271;51.114;13.780;2023-04-08T12:13:03;30.23;;;13.90;;
572;SDS011;271;51.114;13.780;2023-04-08T12:15:51;33.23;;;15.93;;
572;SDS011;271;51.114;13.780;2023-04-08T12:18:39;32.58;;;15.38;;
572;SDS011;271;51.114;13.780;2023-04-08T12:21:27;38.37;;;18.83;;
572;SDS011;271;51.114;13.780;2023-04-08T12:24:16;36.70;;;18.70;;
572;SDS011;271;51.114;13.780;2023-04-08T12:27:04;36.05;;;18.45;;
572;SDS011;271;51.114;13.780;2023-04-08T12:29:51;35.13;;;17.80;;
572;SDS011;271;51.114;13.780;2023-04-08T12:32:40;35.60;;;17.77;;
572;SDS011;271;51.114;13.780;2023-04-08T12:35:30;34.55;;;17.02;;
572;SDS011;271;51.114;13.780;2023-04-08T12:38:18;38.50;;;19.05;;
572;SDS011;271;51.114;13.780;2023-04-08T12:41:07;37.07;;;18.47;;
572;SDS011;271;51.114;13.780;2023-04-08T12:43:55;38.30;;;17.77;;
572;SDS011;271;51.114;13.780;2023-04-08T12:46:42;35.05;;;16.10;;
572;SDS011;271;51.114;13.780;2023-04-08T12:49:30;36.63;;;16.50;;
572;SDS011;271;51.114;13.780;2023-04-08T12:52:18;34.55;;;16.60;;
572;SDS011;271;51.114;13.780;2023-04-08T12:55:06;37.15;;;18.63;;
572;SDS011;271;51.114;13.780;2023-04-08T12:57:56;35.42;;;16.70;;
572;SDS011;271;51.114;13.780;2023-04-08T13:00:43;35.25;;;16.95;;
572;SDS011;271;51.114;13.780;2023-04-08T13:03:32;34.38;;;16.67;;
572;SDS011;271;51.114;13.780;2023-04-08T13:06:21;33.78;;;16.52;;
572;SDS011;271;51.114;13.780;2023-04-08T13:09:08;34.38;;;16.02;;
572;SDS011;271;51.114;13.780;2023-04-08T13:11:56;34.50;;;16.27;;
572;SDS011;271;51.114;13.780;2023-04-08T13:14:45;35.65;;;16.52;;
572;SDS011;271;51.114;13.780;2023-04-08T13:17:33;31.77;;;14.35;;
572;SDS011;271;51.114;13.780;2023-04-08T13:20:21;33.85;;;14.95;;
572;SDS011;271;51.114;13.780;2023-04-08T13:23:10;33.10;;;15.00;;
572;SDS011;271;51.114;13.780;2023-04-08T13:26:00;32.35;;;15.75;;
572;SDS011;271;51.114;13.780;2023-04-08T13:28:47;32.25;;;13.98;;
572;SDS011;271;51.114;13.780;2023-04-08T13:31:38;35.05;;;14.80;;
572;SDS011;271;51.114;13.780;2023-04-08T13:34:26;32.08;;;14.43;;
572;SDS011;271;51.114;13.780;2023-04-08T13:37:14;34.00;;;14.05;;
572;SDS011;271;51.114;13.780;2023-04-08T13:40:02;31.50;;;13.57;;
572;SDS011;271;51.114;13.780;2023-04-08T13:42:50;31.97;;;14.73;;
572;SDS011;271;51.114;13.780;2023-04-08T13:45:38;29.35;;;13.45;;
572;SDS011;271;51.114;13.780;2023-04-08T13:48:27;28.52;;;13.32;;
572;SDS011;271;51.114;13.780;2023-04-08T13:51:14;30.65;;;13.35;;
572;SDS011;271;51.114;13.780;2023-04-08T13:54:02;27.83;;;11.65;;
572;SDS011;271;51.114;13.780;2023-04-08T13:56:50;31.45;;;13.20;;
572;SDS011;271;51.114;13.780;2023-04-08T13:59:37;30.98;;;12.75;;
572;SDS011;271;51.114;13.780;2023-04-08T14:02:25;32.47;;;13.52;;
572;SDS011;271;51.114;13.780;2023-04-08T14:05:14;31.27;;;12.85;;
572;SDS011;271;51.114;13.780;2023-04-08T14:08:02;28.02;;;12.10;;
572;SDS011;271;51.114;13.780;2023-04-08T14:10:50;29.40;;;12.15;;
572;SDS011;271;51.114;13.780;2023-04-08T14:13:37;29.77;;;12.50;;
572;SDS011;271;51.114;13.780;2023-04-08T14:16:25;29.38;;;11.85;;
572;SDS011;271;51.114;13.780;2023-04-08T14:19:15;46.35;;;13.40;;
572;SDS011;271;51.114;13.780;2023-04-08T14:22:04;27.70;;;11.18;;
572;SDS011;271;51.114;13.780;2023-04-08T14:24:51;27.45;;;12.07;;
572;SDS011;271;51.114;13.780;2023-04-08T14:27:39;29.58;;;12.20;;
572;SDS011;271;51.114;13.780;2023-04-08T14:30:27;30.15;;;12.20;;
572;SDS011;271;51.114;13.780;2023-04-08T14:33:14;28.95;;;12.57;;
572;SDS011;271;51.114;13.780;2023-04-08T14:36:02;27.15;;;11.50;;
572;SDS011;271;51.114;13.780;2023-04-08T14:38:52;27.17;;;11.43;;
572;SDS011;271;51.114;13.780;2023-04-08T14:41:40;27.90;;;13.30;;
572;SDS011;271;51.114;13.780;2023-04-08T14:44:28;27.75;;;11.95;;
572;SDS011;271;51.114;13.780;2023-04-08T14:47:16;26.63;;;10.80;;
572;SDS011;271;51.114;13.780;2023-04-08T14:50:03;28.85;;;12.43;;
572;SDS011;271;51.114;13.780;2023-04-08T14:52:52;26.08;;;10.85;;
572;SDS011;271;51.114;13.780;2023-04-08T14:55:41;29.13;;;12.63;;
572;SDS011;271;51.114;13.780;2023-04-08T14:58:29;29.00;;;12.02;;
572;SDS011;271;51.114;13.780;2023-04-08T15:01:16;29.88;;;12.63;;
572;SDS011;271;51.114;13.780;2023-04-08T15:04:04;28.02;;;11.02;;
572;SDS011;271;51.114;13.780;2023-04-08T15:06:52;26.70;;;11.95;;
572;SDS011;271;51.114;13.780;2023-04-08T15:09:39;29.30;;;12.52;;
572;SDS011;271;51.114;13.780;2023-04-08T15:12:28;30.15;;;12.27;;
572;SDS011;271;51.114;13.780;2023-04-08T15:15:17;29.58;;;12.10;;
572;SDS011;271;51.114;13.780;2023-04-08T15:18:05;28.23;;;11.23;;
572;SDS011;271;51.114;13.780;2023-04-08T15:20:53;27.40;;;11.55;;
572;SDS011;271;51.114;13.780;2023-04-08T15:23:41;27.30;;;12.52;;
572;SDS011;271;51.114;13.780;2023-04-08T15:26:28;27.10;;;10.77;;
572;SDS011;271;51.114;13.780;2023-04-08T15:29:17;27.50;;;11.23;;
572;SDS011;271;51.114;13.780;2023-04-08T15:32:08;28.92;;;13.07;;
572;SDS011;271;51.114;13.780;2023-04-08T15:34:55;29.25;;;12.05;;
572;SDS011;271;51.114;13.780;2023-04-08T15:37:43;27.58;;;11.65;;
572;SDS011;271;51.114;13.780;2023-04-08T15:40:31;30.35;;;13.65;;
572;SDS011;271;51.114;13.780;2023-04-08T15:43:19;27.95;;;12.38;;
572;SDS011;271;51.114;13.780;2023-04-08T15:46:08;29.10;;;12.63;;
572;SDS011;271;51.114;13.780;2023-04-08T15:48:56;29.45;;;12.90;;
572;SDS011;271;51.114;13.780;2023-04-08T15:51:44;28.77;;;12.45;;
572;SDS011;271;51.114;13.780;2023-04-08T15:54:34;30.05;;;13.68;;
572;SDS011;271;51.114;13.780;2023-04-08T15:57:22;28.58;;;14.20;;
572;SDS011;271;51.114;13.780;2023-04-08T16:00:11;29.42;;;13.20;;
572;SDS011;271;51.114;13.780;2023-04-08T16:03:02;31.35;;;14.95;;
572;SDS011;271;51.114;13.780;2023-04-08T16:05:52;30.70;;;13.70;;
572;SDS011;271;51.114;13.780;2023-04-08T16:08:40;29.90;;;13.48;;
572;SDS011;271;51.114;13.780;2023-04-08T16:11:29;32.83;;;13.95;;
572;SDS011;271;51.114;13.780;2023-04-08T16:14:19;30.65;;;13.57;;
572;SDS011;271;51.114;13.780;2023-04-08T16:17:06;30.77;;;13.57;;
572;SDS011;271;51.114;13.780;2023-04-08T16:19:55;28.02;;;12.85;;
572;SDS011;271;51.114;13.780;2023-04-08T16:22:43;30.55;;;14.50;;
572;SDS011;271;51.114;13.780;2023-04-08T16:25:31;31.38;;;14.52;;
572;SDS011;271;51.114;13.780;2023-04-08T16:28:19;29.48;;;12.52;;
572;SDS011;271;51.114;13.780;2023-04-08T16:31:06;28.73;;;13.32;;
572;SDS011;271;51.114;13.780;2023-04-08T16:33:54;29.15;;;12.77;;
572;SDS011;271;51.114;13.780;2023-04-08T16:36:43;31.40;;;14.35;;
572;SDS011;271;51.114;13.780;2023-04-08T16:39:32;29.02;;;14.30;;
572;SDS011;271;51.114;13.780;2023-04-08T16:42:19;27.83;;;12.27;;
572;SDS011;271;51.114;13.780;2023-04-08T16:45:07;28.08;;;13.25;;
572;SDS011;271;51.114;13.780;2023-04-08T16:47:56;31.13;;;13.20;;
572;SDS011;271;51.114;13.780;2023-04-08T16:50:43;28.92;;;13.30;;
572;SDS011;271;51.114;13.780;2023-04-08T16:53:32;31.00;;;13.90;;
572;SDS011;271;51.114;13.780;2023-04-08T16:56:20;29.95;;;13.45;;
572;SDS011;271;51.114;13.780;2023-04-08T16:59:08;30.75;;;14.35;;
572;SDS011;271;51.114;13.780;2023-04-08T17:01:56;31.00;;;13.60;;
572;SDS011;271;51.114;13.780;2023-04-08T17:04:43;29.48;;;12.35;;
572;SDS011;271;51.114;13.780;2023-04-08T17:07:35;29.35;;;12.93;;
572;SDS011;271;51.114;13.780;2023-04-08T17:10:24;28.80;;;12.45;;
572;SDS011;271;51.114;13.780;2023-04-08T17:13:12;29.23;;;13.45;;
572;SDS011;271;51.114;13.780;2023-04-08T17:15:59;29.17;;;13.35;;
572;SDS011;271;51.114;13.780;2023-04-08T17:18:48;30.52;;;13.45;;
572;SDS011;271;51.114;13.780;2023-04-08T17:21:36;30.50;;;14.30;;
572;SDS011;271;51.114;13.780;2023-04-08T17:24:24;30.85;;;13.95;;